createdAt,value
2022-11-06T00:00:55.577Z,101273.41
2022-11-06T00:03:23.990Z,101269.09
2022-11-06T00:06:09.222Z,101278.09
2022-11-06T00:08:39.632Z,101278.09
2022-11-06T00:11:11.518Z,101265.00
2022-11-06T00:13:39.502Z,101270.38
2022-11-06T00:16:08.768Z,101260.78
2022-11-06T00:18:37.239Z,101256.44
2022-11-06T00:21:08.395Z,101245.16
2022-11-06T00:23:36.034Z,101252.34
2022-11-06T00:26:07.948Z,101253.31
2022-11-06T00:28:35.781Z,101255.94
2022-11-06T00:31:04.386Z,101258.69
2022-11-06T00:33:32.160Z,101250.75
2022-11-06T00:36:00.105Z,101258.59
2022-11-06T00:38:27.693Z,101257.84
2022-11-06T00:40:55.341Z,101259.31
2022-11-06T00:43:24.386Z,101264.91
2022-11-06T00:45:52.374Z,101260.06
2022-11-06T00:48:19.969Z,101256.38
2022-11-06T00:50:47.584Z,101257.22
2022-11-06T00:53:15.190Z,101254.72
2022-11-06T00:55:42.828Z,101251.09
2022-11-06T00:58:10.730Z,101244.13
2022-11-06T01:00:40.011Z,101240.75
2022-11-06T01:03:07.688Z,101243.63
2022-11-06T01:05:35.341Z,101260.63
2022-11-06T01:08:02.934Z,101260.84
2022-11-06T01:10:30.737Z,101254.50
2022-11-06T01:12:58.373Z,101257.25
2022-11-06T01:15:25.976Z,101243.09
2022-11-06T01:17:55.015Z,101237.81
2022-11-06T01:20:22.613Z,101246.69
2022-11-06T01:22:50.202Z,101248.38
2022-11-06T01:25:17.821Z,101240.44
2022-11-06T01:27:45.476Z,101234.44
2022-11-06T01:30:14.013Z,101232.97
2022-11-06T01:32:41.870Z,101226.00
2022-11-06T01:35:10.913Z,101221.47
2022-11-06T01:37:38.533Z,101216.06
2022-11-06T01:40:07.038Z,101212.59
2022-11-06T01:42:34.642Z,101212.72
2022-11-06T01:45:16.404Z,101212.19
2022-11-06T01:47:44.127Z,101202.47
2022-11-06T01:50:14.727Z,101217.47
2022-11-06T01:52:43.427Z,101197.41
2022-11-06T01:55:13.700Z,101213.03
2022-11-06T01:57:41.589Z,101197.19
2022-11-06T02:00:10.543Z,101199.81
2022-11-06T02:02:39.100Z,101201.50
2022-11-06T02:05:07.368Z,101207.03
2022-11-06T02:07:36.966Z,101199.81
2022-11-06T02:10:05.205Z,101196.22
2022-11-06T02:12:40.606Z,101177.69
2022-11-06T02:15:14.080Z,101200.66
2022-11-06T02:17:53.548Z,101189.25
2022-11-06T02:20:27.472Z,101195.63
2022-11-06T02:23:20.198Z,101189.69
2022-11-06T02:25:51.268Z,101195.81
2022-11-06T02:28:24.728Z,101200.97
2022-11-06T02:30:53.721Z,101196.53
2022-11-06T02:33:27.064Z,101190.22
2022-11-06T02:35:58.452Z,101187.59
2022-11-06T02:38:29.472Z,101181.34
2022-11-06T02:41:00.169Z,101177.75
2022-11-06T02:43:31.795Z,101170.91
2022-11-06T02:46:03.279Z,101159.25
2022-11-06T02:48:33.815Z,101148.09
2022-11-06T02:51:03.519Z,101154.72
2022-11-06T02:53:32.250Z,101143.19
2022-11-06T02:56:04.449Z,101128.88
2022-11-06T02:58:39.107Z,101150.28
2022-11-06T03:01:10.406Z,101152.91
2022-11-06T03:03:42.266Z,101159.25
2022-11-06T03:06:12.640Z,101153.03
2022-11-06T03:08:43.505Z,101149.44
2022-11-06T03:11:16.300Z,101151.88
2022-11-06T03:13:51.343Z,101168.31
2022-11-06T03:16:28.838Z,101154.63
2022-11-06T03:19:01.550Z,101147.88
2022-11-06T03:21:32.393Z,101152.06
2022-11-06T03:24:05.826Z,101150.19
2022-11-06T03:26:37.347Z,101142.13
2022-11-06T03:29:11.693Z,101150.06
2022-11-06T03:31:47.058Z,101144.06
2022-11-06T03:34:18.428Z,101151.88
2022-11-06T03:36:49.089Z,101150.19
2022-11-06T03:39:19.092Z,101146.78
2022-11-06T03:41:49.129Z,101147.75
2022-11-06T03:44:20.876Z,101143.41
2022-11-06T03:46:50.513Z,101154.81
2022-11-06T03:49:22.511Z,101150.38
2022-11-06T03:51:53.335Z,101145.09
2022-11-06T03:54:24.384Z,101145.34
2022-11-06T03:56:56.018Z,101131.41
2022-11-06T03:59:29.104Z,101121.69
2022-11-06T04:01:58.376Z,101146.78
2022-11-06T04:04:28.824Z,101134.78
2022-11-06T04:06:58.754Z,101144.25
2022-11-06T04:09:47.331Z,101148.59
2022-11-06T04:12:48.475Z,101136.97
2022-11-06T04:15:19.974Z,101139.63
2022-11-06T04:17:47.566Z,101140.09
2022-11-06T04:20:38.641Z,101140.34
2022-11-06T04:23:12.233Z,101136.97
2022-11-06T04:26:07.919Z,101135.78
2022-11-06T04:28:38.475Z,101134.94
2022-11-06T04:31:11.238Z,101131.47
2022-11-06T04:33:43.494Z,101122.06
2022-11-06T04:36:17.472Z,101137.69
2022-11-06T04:38:52.556Z,101126.50
2022-11-06T04:41:34.362Z,101118.25
2022-11-06T04:44:05.273Z,101108.41
2022-11-06T04:46:38.692Z,101102.41
2022-11-06T04:49:07.040Z,101102.41
2022-11-06T04:51:37.468Z,101104.34
2022-11-06T04:54:05.972Z,101103.25
2022-11-06T04:56:37.927Z,101091.72
2022-11-06T04:59:08.233Z,101089.72
2022-11-06T05:01:37.386Z,101092.13
2022-11-06T05:04:05.400Z,101082.28
2022-11-06T05:06:33.171Z,101087.47
2022-11-06T05:09:01.250Z,101084.84
2022-11-06T05:11:29.081Z,101084.84
2022-11-06T05:13:56.792Z,101084.94
2022-11-06T05:16:24.448Z,101073.41
2022-11-06T05:18:53.492Z,101075.84
2022-11-06T05:21:38.789Z,101073.06
2022-11-06T05:24:07.400Z,101072.09
2022-11-06T05:26:35.233Z,101073.78
2022-11-06T05:29:03.049Z,101072.94
2022-11-06T05:31:30.814Z,101072.75
2022-11-06T05:33:59.932Z,101067.47
2022-11-06T05:36:27.661Z,101074.41
2022-11-06T05:38:55.335Z,101070.81
2022-11-06T05:41:22.978Z,101068.91
2022-11-06T05:43:51.035Z,101066.38
2022-11-06T05:46:42.890Z,101072.50
2022-11-06T05:49:07.921Z,101066.03
2022-11-06T05:51:35.898Z,101077.31
2022-11-06T05:54:04.332Z,101066.88
2022-11-06T05:56:32.204Z,101067.84
2022-11-06T05:58:59.933Z,101067.84
2022-11-06T06:01:27.592Z,101072.03
2022-11-06T06:03:55.264Z,101063.41
2022-11-06T06:06:24.417Z,101065.06
2022-11-06T06:08:52.047Z,101060.00
2022-11-06T06:11:19.814Z,101060.25
2022-11-06T06:13:48.308Z,101061.22
2022-11-06T06:16:16.043Z,101046.53
2022-11-06T06:18:43.940Z,101053.75
2022-11-06T06:21:11.605Z,101053.03
2022-11-06T06:23:40.609Z,101048.06
2022-11-06T06:26:08.308Z,101053.22
2022-11-06T06:28:36.192Z,101047.22
2022-11-06T06:31:05.220Z,101041.94
2022-11-06T06:33:33.258Z,101042.91
2022-11-06T06:36:04.246Z,101048.91
2022-11-06T06:38:32.378Z,101045.31
2022-11-06T06:41:04.092Z,101049.75
2022-11-06T06:43:32.146Z,101049.63
2022-11-06T06:46:00.420Z,101040.03
2022-11-06T06:48:28.234Z,101042.59
2022-11-06T06:50:57.811Z,101039.19
2022-11-06T06:53:25.709Z,101043.63
2022-11-06T06:55:53.409Z,101045.31
2022-11-06T06:58:22.819Z,101045.44
2022-11-06T07:00:50.856Z,101039.44
2022-11-06T07:03:18.545Z,101052.50
2022-11-06T07:05:46.779Z,101048.06
2022-11-06T07:08:15.152Z,101047.94
2022-11-06T07:10:43.030Z,101050.38
2022-11-06T07:13:11.024Z,101048.47
2022-11-06T07:15:40.335Z,101045.09
2022-11-06T07:18:08.475Z,101043.06
2022-11-06T07:20:36.834Z,101037.66
2022-11-06T07:23:08.154Z,101035.75
2022-11-06T07:25:36.325Z,101024.34
2022-11-06T07:28:04.573Z,101028.31
2022-11-06T07:30:32.726Z,101022.81
2022-11-06T07:33:03.227Z,101026.88
2022-11-06T07:35:31.487Z,101027.63
2022-11-06T07:37:59.253Z,101028.22
2022-11-06T07:40:27.129Z,101028.72
2022-11-06T07:42:54.917Z,101027.50
2022-11-06T07:45:22.563Z,101029.56
2022-11-06T07:47:52.930Z,101017.94
2022-11-06T07:50:25.996Z,101011.91
2022-11-06T07:52:53.660Z,101019.72
2022-11-06T07:55:21.355Z,101020.59
2022-11-06T07:57:49.245Z,101010.72
2022-11-06T08:00:17.120Z,101008.69
2022-11-06T08:02:44.985Z,101006.69
2022-11-06T08:05:12.786Z,100996.69
2022-11-06T08:07:41.956Z,100999.97
2022-11-06T08:10:10.496Z,101004.16
2022-11-06T08:12:38.193Z,101003.31
2022-11-06T08:15:06.935Z,100994.53
2022-11-06T08:17:34.571Z,101001.25
2022-11-06T08:20:02.247Z,100997.41
2022-11-06T08:22:29.975Z,100995.28
2022-11-06T08:24:59.130Z,100987.34
2022-11-06T08:27:26.967Z,100981.09
2022-11-06T08:29:54.636Z,100977.47
2022-11-06T08:32:22.295Z,100977.47
2022-11-06T08:34:49.966Z,100974.13
2022-11-06T08:37:17.596Z,100986.13
2022-11-06T08:39:45.400Z,100993.06
2022-11-06T08:42:14.443Z,100996.44
2022-11-06T08:44:42.893Z,100992.13
2022-11-06T08:47:10.665Z,100990.22
2022-11-06T08:49:38.304Z,100974.69
2022-11-06T08:52:05.914Z,100979.63
2022-11-06T08:54:33.571Z,100984.53
2022-11-06T08:57:02.310Z,100987.78
2022-11-06T08:59:31.426Z,100979.03
2022-11-06T09:01:59.233Z,100983.22
2022-11-06T09:04:27.425Z,100974.06
2022-11-06T09:06:55.258Z,100965.75
2022-11-06T09:09:22.967Z,100948.78
2022-11-06T09:11:50.576Z,100956.09
2022-11-06T09:14:18.333Z,100941.06
2022-11-06T09:16:47.509Z,100942.38
2022-11-06T09:19:15.408Z,100940.91
2022-11-06T09:21:43.141Z,100943.19
2022-11-06T09:24:10.778Z,100939.31
2022-11-06T09:26:38.748Z,100943.13
2022-11-06T09:29:06.434Z,100937.59
2022-11-06T09:31:34.307Z,100943.09
2022-11-06T09:34:03.380Z,100940.66
2022-11-06T09:36:31.079Z,100936.53
2022-11-06T09:38:58.698Z,100934.31
2022-11-06T09:41:33.788Z,100934.78
2022-11-06T09:44:11.938Z,100924.66
2022-11-06T09:46:42.288Z,100923.53
2022-11-06T09:49:17.898Z,100923.25
2022-11-06T09:51:51.707Z,100927.50
2022-11-06T09:54:22.062Z,100924.31
2022-11-06T09:56:52.118Z,100927.41
2022-11-06T09:59:21.956Z,100930.94
2022-11-06T10:01:51.743Z,100927.34
2022-11-06T10:04:35.624Z,100923.00
2022-11-06T10:07:03.294Z,100921.50
2022-11-06T10:09:30.992Z,100917.03
2022-11-06T10:12:08.247Z,100917.03
2022-11-06T10:14:51.391Z,100903.94
2022-11-06T10:17:27.804Z,100898.06
2022-11-06T10:19:59.597Z,100900.03
2022-11-06T10:22:32.926Z,100899.03
2022-11-06T10:25:09.989Z,100886.88
2022-11-06T10:27:41.619Z,100889.81
2022-11-06T10:30:12.030Z,100898.03
2022-11-06T10:32:54.022Z,100891.31
2022-11-06T10:35:24.980Z,100891.59
2022-11-06T10:37:56.524Z,100883.19
2022-11-06T10:40:25.746Z,100883.19
2022-11-06T10:42:59.928Z,100883.19
2022-11-06T10:45:29.089Z,100876.34
2022-11-06T10:48:00.493Z,100870.63
2022-11-06T10:50:35.694Z,100864.34
2022-11-06T10:53:05.529Z,100859.91
2022-11-06T10:56:10.869Z,100859.66
2022-11-06T10:58:38.925Z,100839.00
2022-11-06T11:01:07.998Z,100829.41
2022-11-06T11:03:37.692Z,100818.31
2022-11-06T11:06:07.597Z,100832.03
2022-11-06T11:08:38.409Z,100819.78
2022-11-06T11:11:07.371Z,100833.19
2022-11-06T11:13:35.499Z,100823.72
2022-11-06T11:16:05.033Z,100825.41
2022-11-06T11:18:33.972Z,100824.97
2022-11-06T11:21:09.397Z,100827.91
2022-11-06T11:23:37.040Z,100815.31
2022-11-06T11:26:28.653Z,100815.47
2022-11-06T11:28:57.663Z,100816.72
2022-11-06T11:31:30.181Z,100814.88
2022-11-06T11:34:00.311Z,100805.84
2022-11-06T11:36:48.352Z,100800.41
2022-11-06T11:39:17.292Z,100789.94
2022-11-06T11:41:44.956Z,100776.38
2022-11-06T11:44:16.643Z,100767.03
2022-11-06T11:46:48.896Z,100766.19
2022-11-06T11:49:30.592Z,100757.41
2022-11-06T11:52:00.815Z,100763.25
2022-11-06T11:54:30.237Z,100754.59
2022-11-06T11:57:07.608Z,100749.72
2022-11-06T11:59:39.051Z,100745.53
2022-11-06T12:02:15.176Z,100744.56
2022-11-06T12:04:45.380Z,100727.22
2022-11-06T12:07:24.347Z,100726.84
2022-11-06T12:09:52.354Z,100732.41
2022-11-06T12:12:22.640Z,100729.22
2022-11-06T12:15:06.167Z,100730.47
2022-11-06T12:17:36.961Z,100720.97
2022-11-06T12:20:09.181Z,100713.44
2022-11-06T12:24:45.748Z,100700.03
2022-11-06T12:27:16.910Z,100692.78
2022-11-06T12:29:48.095Z,100687.75
2022-11-06T12:32:23.829Z,100687.47
2022-11-06T12:34:56.892Z,100673.25
2022-11-06T12:37:29.762Z,100687.88
2022-11-06T12:40:06.221Z,100667.75
2022-11-06T12:44:00.693Z,100654.34
2022-11-06T12:46:35.610Z,100654.75
2022-11-06T12:49:23.748Z,100647.50
2022-11-06T12:52:01.145Z,100647.75
2022-11-06T12:54:41.193Z,100648.06
2022-11-06T12:57:17.164Z,100658.00
2022-11-06T12:59:55.619Z,100644.16
2022-11-06T13:02:38.112Z,100631.47
2022-11-06T13:05:09.655Z,100615.56
2022-11-06T13:07:50.607Z,100623.53
2022-11-06T13:10:25.424Z,100631.91
2022-11-06T13:13:03.073Z,100630.25
2022-11-06T13:15:35.300Z,100631.19
2022-11-06T13:18:09.014Z,100630.50
2022-11-06T13:20:40.183Z,100630.81
2022-11-06T13:23:14.167Z,100632.06
2022-11-06T13:25:47.208Z,100629.69
2022-11-06T13:28:27.595Z,100628.03
2022-11-06T13:30:58.478Z,100628.19
2022-11-06T13:33:28.021Z,100612.69
2022-11-06T13:35:55.944Z,100612.53
2022-11-06T13:38:25.822Z,100614.66
2022-11-06T13:40:57.132Z,100613.81
2022-11-06T13:43:34.038Z,100619.22
2022-11-06T13:46:09.604Z,100620.06
2022-11-06T13:48:45.257Z,100611.28
2022-11-06T13:53:49.874Z,100603.91
2022-11-06T13:56:34.809Z,100634.03
2022-11-06T13:59:25.763Z,100620.22
2022-11-06T14:02:03.235Z,100611.59
2022-11-06T14:07:14.427Z,100611.03
2022-11-06T14:09:44.988Z,100594.00
2022-11-06T14:12:19.002Z,100603.06
2022-11-06T14:14:47.207Z,100598.50
2022-11-06T14:17:21.995Z,100604.88
2022-11-06T14:20:05.112Z,100594.84
2022-11-06T14:22:36.370Z,100595.94
2022-11-06T14:25:37.601Z,100600.41
2022-11-06T14:28:07.408Z,100604.34
2022-11-06T14:31:11.069Z,100605.19
2022-11-06T14:34:03.387Z,100608.25
2022-11-06T14:36:34.753Z,100602.09
2022-11-06T14:41:59.585Z,100597.94
2022-11-06T14:44:47.295Z,100587.34
2022-11-06T14:47:30.594Z,100572.53
2022-11-06T14:50:00.507Z,100581.19
2022-11-06T14:52:28.913Z,100584.81
2022-11-06T14:55:04.438Z,100593.75
2022-11-06T14:57:42.604Z,100579.81
2022-11-06T15:00:15.434Z,100594.56
2022-11-06T15:02:43.842Z,100583.97
2022-11-06T15:05:17.528Z,100585.78
2022-11-06T15:08:04.967Z,100578.13
2022-11-06T15:10:54.332Z,100583.69
2022-11-06T15:13:33.465Z,100580.09
2022-11-06T15:16:15.460Z,100578.41
2022-11-06T15:18:44.406Z,100566.13
2022-11-06T15:21:19.028Z,100569.75
2022-11-06T15:23:54.521Z,100574.91
2022-11-06T15:26:25.445Z,100573.94
2022-11-06T15:29:06.007Z,100567.25
2022-11-06T15:31:34.713Z,100561.13
2022-11-06T15:34:04.172Z,100566.41
2022-11-06T15:36:38.013Z,100557.50
2022-11-06T15:39:24.328Z,100564.59
2022-11-06T15:41:52.625Z,100554.41
2022-11-06T15:44:24.633Z,100558.88
2022-11-06T15:46:55.960Z,100563.63
2022-11-06T15:49:23.779Z,100561.97
2022-11-06T15:51:53.832Z,100563.03
2022-11-06T15:54:36.611Z,100555.53
2022-11-06T15:57:07.411Z,100574.31
2022-11-06T15:59:36.603Z,100574.06
2022-11-06T16:02:06.078Z,100576.53
2022-11-06T16:04:34.414Z,100566.63
2022-11-06T16:07:02.139Z,100562.16
2022-11-06T16:09:29.921Z,100567.28
2022-11-06T16:11:58.538Z,100566.59
2022-11-06T16:14:26.293Z,100560.72
2022-11-06T16:16:57.103Z,100556.41
2022-11-06T16:19:29.190Z,100560.00
2022-11-06T16:22:00.592Z,100558.34
2022-11-06T16:24:30.229Z,100550.81
2022-11-06T16:26:57.963Z,100543.97
2022-11-06T16:29:27.496Z,100536.28
2022-11-06T16:32:05.037Z,100539.50
2022-11-06T16:34:38.863Z,100538.09
2022-11-06T16:37:08.099Z,100527.94
2022-11-06T16:39:49.259Z,100519.25
2022-11-06T16:42:27.137Z,100510.63
2022-11-06T16:45:55.230Z,100497.03
2022-11-06T16:48:40.121Z,100501.88
2022-11-06T16:51:11.270Z,100500.59
2022-11-06T16:53:52.528Z,100497.53
2022-11-06T16:56:24.108Z,100485.41
2022-11-06T16:58:53.203Z,100488.88
2022-11-06T17:01:22.513Z,100475.66
2022-11-06T17:03:55.004Z,100473.44
2022-11-06T17:06:24.896Z,100452.66
2022-11-06T17:09:24.971Z,100442.78
2022-11-06T17:11:53.268Z,100445.56
2022-11-06T17:14:21.868Z,100429.53
2022-11-06T17:16:52.308Z,100429.28
2022-11-06T17:19:20.767Z,100428.56
2022-11-06T17:21:49.236Z,100421.91
2022-11-06T17:27:05.144Z,100407.97
2022-11-06T17:29:33.887Z,100420.47
2022-11-06T17:32:03.044Z,100411.03
2022-11-06T17:34:30.657Z,100418.81
2022-11-06T17:36:58.349Z,100399.63
2022-11-06T17:39:26.030Z,100396.56
2022-11-06T17:41:54.488Z,100399.09
2022-11-06T17:44:22.684Z,100388.63
2022-11-06T17:46:50.658Z,100387.09
2022-11-06T17:49:19.750Z,100382.78
2022-11-06T17:52:00.109Z,100386.63
2022-11-06T17:54:30.284Z,100380.94
2022-11-06T17:56:58.882Z,100379.25
2022-11-06T17:59:26.651Z,100382.97
2022-11-06T18:01:54.924Z,100373.91
2022-11-06T18:04:25.382Z,100366.41
2022-11-06T18:06:54.105Z,100353.59
2022-11-06T18:09:22.738Z,100349.41
2022-11-06T18:11:51.166Z,100345.38
2022-11-06T18:14:19.154Z,100355.50
2022-11-06T18:16:46.897Z,100346.88
2022-11-06T18:19:16.869Z,100343.81
2022-11-06T18:21:45.902Z,100361.31
2022-11-06T18:24:13.606Z,100361.56
2022-11-06T18:26:41.302Z,100360.72
2022-11-06T18:29:09.796Z,100359.34
2022-11-06T18:31:37.457Z,100354.25
2022-11-06T18:34:06.036Z,100362.63
2022-11-06T18:36:34.979Z,100360.69
2022-11-06T18:39:04.227Z,100357.34
2022-11-06T18:41:31.987Z,100358.88
2022-11-06T18:44:00.365Z,100369.59
2022-11-06T18:46:29.607Z,100365.28
2022-11-06T18:48:57.825Z,100371.25
2022-11-06T18:51:35.164Z,100369.59
2022-11-06T18:54:07.960Z,100364.56
2022-11-06T18:56:37.360Z,100350.97
2022-11-06T18:59:06.272Z,100348.84
2022-11-06T19:01:35.825Z,100355.41
2022-11-06T19:04:04.814Z,100354.19
2022-11-06T19:06:33.205Z,100353.22
2022-11-06T19:09:00.901Z,100357.53
2022-11-06T19:11:30.128Z,100356.69
2022-11-06T19:13:57.822Z,100353.22
2022-11-06T19:16:25.556Z,100360.88
2022-11-06T19:21:29.677Z,100339.28
2022-11-06T19:24:03.536Z,100347.66
2022-11-06T19:26:33.719Z,100356.56
2022-11-06T19:29:01.474Z,100353.22
2022-11-06T19:31:30.000Z,100352.38
2022-11-06T19:33:58.050Z,100349.84
2022-11-06T19:36:26.294Z,100351.66
2022-11-06T19:38:54.320Z,100360.41
2022-11-06T19:41:22.276Z,100370.13
2022-11-06T19:43:51.328Z,100373.75
2022-11-06T19:46:24.706Z,100374.72
2022-11-06T19:48:55.261Z,100367.41
2022-11-06T19:51:22.956Z,100383.25
2022-11-06T19:53:53.074Z,100377.81
2022-11-06T19:56:21.341Z,100382.97
2022-11-06T19:58:50.210Z,100379.34
2022-11-06T20:01:20.553Z,100376.84
2022-11-06T20:03:48.347Z,100386.72
2022-11-06T20:06:17.178Z,100382.97
2022-11-06T20:08:48.381Z,100391.34
2022-11-06T20:11:16.364Z,100361.56
2022-11-06T20:13:45.568Z,100376.06
2022-11-06T20:16:15.388Z,100372.84
2022-11-06T20:18:45.866Z,100382.16
2022-11-06T20:21:13.456Z,100364.50
2022-11-06T20:23:41.088Z,100374.94
2022-11-06T20:26:09.712Z,100372.19
2022-11-06T20:28:37.385Z,100364.13
2022-11-06T20:31:06.578Z,100359.81
2022-11-06T20:33:34.202Z,100358.72
2022-11-06T20:36:11.675Z,100363.00
2022-11-06T20:38:39.402Z,100363.84
2022-11-06T20:41:07.186Z,100365.53
2022-11-06T20:43:35.206Z,100367.22
2022-11-06T20:46:03.362Z,100371.78
2022-11-06T20:48:32.774Z,100369.97
2022-11-06T20:51:01.067Z,100381.50
2022-11-06T20:53:30.504Z,100383.06
2022-11-06T20:55:58.584Z,100363.84
2022-11-06T20:58:26.734Z,100379.84
2022-11-06T21:01:01.434Z,100385.97
2022-11-06T21:03:29.104Z,100386.66
2022-11-06T21:05:56.787Z,100384.97
2022-11-06T21:08:24.626Z,100392.53
2022-11-06T21:11:00.723Z,100394.19
2022-11-06T21:13:31.206Z,100399.47
2022-11-06T21:15:59.362Z,100391.41
2022-11-06T21:18:27.391Z,100385.72
2022-11-06T21:20:55.214Z,100391.00
2022-11-06T21:23:23.386Z,100391.69
2022-11-06T21:25:51.012Z,100390.84
2022-11-06T21:28:20.058Z,100403.78
2022-11-06T21:30:49.199Z,100399.47
2022-11-06T21:33:17.045Z,100396.13
2022-11-06T21:35:44.668Z,100398.34
2022-11-06T21:38:12.308Z,100405.31
2022-11-06T21:40:40.521Z,100412.41
2022-11-06T21:43:08.122Z,100406.88
2022-11-06T21:45:37.758Z,100407.00
2022-11-06T21:48:14.774Z,100405.91
2022-11-06T21:50:53.719Z,100408.84
2022-11-06T21:53:38.724Z,100414.97
2022-11-06T21:56:07.450Z,100414.69
2022-11-06T21:58:35.191Z,100416.25
2022-11-06T22:01:07.791Z,100404.13
2022-11-06T22:03:35.553Z,100408.75
2022-11-06T22:06:07.653Z,100404.28
2022-11-06T22:08:37.617Z,100408.63
2022-11-06T22:11:13.616Z,100415.47
2022-11-06T22:13:41.661Z,100411.84
2022-11-06T22:16:12.490Z,100412.56
2022-11-06T22:18:40.448Z,100413.38
2022-11-06T22:21:09.015Z,100410.50
2022-11-06T22:23:37.264Z,100416.63
2022-11-06T22:26:05.400Z,100411.34
2022-11-06T22:28:33.270Z,100425.25
2022-11-06T22:31:01.636Z,100423.28
2022-11-06T22:33:31.559Z,100418.00
2022-11-06T22:36:02.880Z,100422.19
2022-11-06T22:38:30.619Z,100430.00
2022-11-06T22:41:00.428Z,100431.66
2022-11-06T22:43:29.280Z,100429.03
2022-11-06T22:46:00.151Z,100428.03
2022-11-06T22:48:28.175Z,100425.13
2022-11-06T22:50:57.581Z,100421.53
2022-11-06T22:53:25.227Z,100408.25
2022-11-06T22:55:56.194Z,100419.72
2022-11-06T22:58:23.928Z,100430.84
2022-11-06T23:00:51.796Z,100419.28
2022-11-06T23:03:19.986Z,100431.16
2022-11-06T23:05:47.763Z,100443.69
2022-11-06T23:08:17.325Z,100427.53
2022-11-06T23:10:45.488Z,100429.47
2022-11-06T23:13:13.446Z,100439.53
2022-11-06T23:15:41.267Z,100455.25
2022-11-06T23:18:08.864Z,100441.72
2022-11-06T23:20:36.515Z,100442.56
2022-11-06T23:23:05.004Z,100450.38
2022-11-06T23:25:34.212Z,100448.69
2022-11-06T23:28:02.467Z,100445.06
2022-11-06T23:30:31.015Z,100452.06
2022-11-06T23:32:58.830Z,100457.34
2022-11-06T23:35:32.095Z,100448.16
2022-11-06T23:38:00.268Z,100455.84
2022-11-06T23:40:28.396Z,100455.94
2022-11-06T23:42:57.633Z,100449.56
2022-11-06T23:45:42.781Z,100462.78
2022-11-06T23:48:13.783Z,100457.50
2022-11-06T23:50:41.411Z,100466.13
2022-11-06T23:53:09.329Z,100463.19
2022-11-06T23:55:36.961Z,100469.31
2022-11-06T23:58:06.022Z,100468.50
